createdAt,value
2024-04-12T00:00:23.111Z,8.15
2024-04-12T00:03:09.953Z,7.43
2024-04-12T00:05:56.126Z,5.43
2024-04-12T00:08:52.208Z,4.43
2024-04-12T00:11:40.784Z,9.30
2024-04-12T00:14:26.550Z,7.50
2024-04-12T00:17:17.508Z,7.10
2024-04-12T00:20:05.928Z,5.78
2024-04-12T00:22:56.910Z,4.28
2024-04-12T00:25:43.098Z,5.43
2024-04-12T00:28:32.895Z,7.65
2024-04-12T00:31:18.029Z,4.50
2024-04-12T00:34:05.968Z,5.20
2024-04-12T00:36:51.739Z,7.93
2024-04-12T00:39:40.506Z,6.95
2024-04-12T00:42:33.680Z,5.80
2024-04-12T00:45:39.893Z,4.55
2024-04-12T00:48:27.802Z,8.25
2024-04-12T00:51:18.723Z,8.45
2024-04-12T00:54:08.747Z,7.55
2024-04-12T00:59:43.733Z,5.75
2024-04-12T01:02:28.933Z,11.02
2024-04-12T01:05:18.220Z,6.38
2024-04-12T01:08:07.428Z,6.90
2024-04-12T01:10:54.190Z,11.10
2024-04-12T01:13:40.292Z,6.93
2024-04-12T01:16:25.681Z,6.20
2024-04-12T01:19:13.678Z,7.43
2024-04-12T01:22:01.354Z,10.52
2024-04-12T01:24:46.864Z,6.50
2024-04-12T01:27:35.657Z,4.07
2024-04-12T01:30:21.461Z,4.47
2024-04-12T01:33:09.753Z,7.00
2024-04-12T01:35:56.658Z,5.95
2024-04-12T01:38:43.062Z,8.55
2024-04-12T01:41:33.276Z,8.90
2024-04-12T01:44:25.401Z,7.07
2024-04-12T01:47:15.563Z,7.88
2024-04-12T01:50:02.741Z,6.68
2024-04-12T01:52:58.727Z,7.40
2024-04-12T01:55:47.210Z,6.18
2024-04-12T01:58:35.641Z,8.63
2024-04-12T02:01:23.096Z,7.97
2024-04-12T02:04:08.890Z,5.38
2024-04-12T02:06:54.593Z,7.45
2024-04-12T02:09:41.405Z,5.47
2024-04-12T02:12:29.974Z,5.60
2024-04-12T02:15:21.457Z,5.72
2024-04-12T02:18:06.897Z,6.65
2024-04-12T02:20:54.478Z,5.38
2024-04-12T02:23:42.101Z,7.20
2024-04-12T02:26:27.747Z,5.20
2024-04-12T02:29:13.021Z,5.88
2024-04-12T02:31:59.159Z,8.02
2024-04-12T02:34:49.519Z,10.38
2024-04-12T02:37:36.097Z,4.78
2024-04-12T02:40:21.915Z,5.28
2024-04-12T02:43:07.468Z,4.45
2024-04-12T02:45:58.423Z,4.20
2024-04-12T02:48:48.488Z,8.07
2024-04-12T02:51:34.427Z,8.30
2024-04-12T02:54:22.019Z,5.57
2024-04-12T02:57:08.729Z,9.98
2024-04-12T02:59:54.335Z,8.07
2024-04-12T03:02:40.277Z,9.73
2024-04-12T03:05:25.836Z,5.70
2024-04-12T03:08:19.396Z,7.25
2024-04-12T03:11:15.599Z,8.10
2024-04-12T03:14:16.393Z,7.78
2024-04-12T03:17:05.520Z,7.78
2024-04-12T03:19:51.128Z,10.65
2024-04-12T03:22:36.575Z,9.95
2024-04-12T03:25:23.417Z,7.38
2024-04-12T03:28:10.082Z,7.45
2024-04-12T03:30:56.299Z,7.13
2024-04-12T03:33:45.356Z,11.15
2024-04-12T03:36:33.543Z,5.73
2024-04-12T03:39:23.665Z,7.80
2024-04-12T03:42:13.066Z,9.52
2024-04-12T03:44:59.343Z,6.82
2024-04-12T03:47:51.648Z,8.23
2024-04-12T03:50:37.437Z,8.43
2024-04-12T03:53:30.041Z,11.27
2024-04-12T03:56:15.286Z,10.20
2024-04-12T03:59:02.114Z,8.38
2024-04-12T04:01:49.147Z,11.10
2024-04-12T04:04:39.308Z,13.45
2024-04-12T04:07:25.101Z,12.27
2024-04-12T04:10:14.636Z,8.30
2024-04-12T04:13:05.129Z,13.10
2024-04-12T04:15:52.000Z,9.07
2024-04-12T04:18:37.727Z,10.30
2024-04-12T04:21:25.801Z,13.40
2024-04-12T04:24:11.426Z,11.50
2024-04-12T04:26:58.177Z,10.65
2024-04-12T04:29:45.386Z,14.82
2024-04-12T04:32:31.235Z,17.08
2024-04-12T04:35:16.666Z,10.85
2024-04-12T04:38:02.363Z,10.57
2024-04-12T04:40:47.624Z,8.85
2024-04-12T04:43:37.049Z,12.73
2024-04-12T04:46:28.570Z,14.20
2024-04-12T04:49:15.172Z,12.43
2024-04-12T04:52:03.011Z,8.10
2024-04-12T04:54:49.167Z,9.48
2024-04-12T04:57:44.613Z,11.30
2024-04-12T05:00:41.959Z,8.23
2024-04-12T05:03:27.338Z,11.85
2024-04-12T05:06:13.860Z,8.95
2024-04-12T05:09:02.435Z,7.97
2024-04-12T05:11:53.795Z,6.40
2024-04-12T05:14:39.795Z,11.60
2024-04-12T05:17:25.512Z,12.55
2024-04-12T05:20:21.321Z,9.52
2024-04-12T05:23:09.655Z,14.00
2024-04-12T05:25:55.831Z,11.00
2024-04-12T05:28:43.664Z,8.65
2024-04-12T05:31:31.527Z,9.27
2024-04-12T05:34:20.066Z,16.67
2024-04-12T05:37:05.379Z,13.15
2024-04-12T05:39:58.135Z,12.43
2024-04-12T05:42:43.370Z,13.30
2024-04-12T05:45:28.943Z,12.90
2024-04-12T05:48:15.694Z,14.05
2024-04-12T05:51:03.311Z,15.15
2024-04-12T05:53:52.658Z,14.80
2024-04-12T05:56:40.920Z,13.75
2024-04-12T05:59:26.707Z,14.75
2024-04-12T06:02:16.756Z,11.90
2024-04-12T06:05:06.182Z,14.73
2024-04-12T06:07:51.400Z,10.77
2024-04-12T06:10:39.053Z,11.63
2024-04-12T06:13:25.464Z,11.45
2024-04-12T06:16:12.937Z,18.00
2024-04-12T06:19:00.037Z,15.98
2024-04-12T06:21:50.057Z,47.88
2024-04-12T06:24:38.631Z,19.25
2024-04-12T06:27:31.386Z,15.40
2024-04-12T06:30:19.058Z,12.75
2024-04-12T06:33:07.428Z,12.48
2024-04-12T06:36:06.666Z,12.90
2024-04-12T06:38:54.128Z,8.40
2024-04-12T06:41:39.384Z,14.95
2024-04-12T06:44:26.139Z,13.68
2024-04-12T06:47:13.357Z,14.52
2024-04-12T06:50:09.356Z,10.63
2024-04-12T06:52:55.472Z,13.60
2024-04-12T06:55:47.537Z,9.77
2024-04-12T06:58:39.491Z,12.68
2024-04-12T07:01:27.029Z,12.80
2024-04-12T07:04:12.520Z,13.93
2024-04-12T07:06:58.145Z,11.65
2024-04-12T07:09:47.033Z,13.27
2024-04-12T07:12:33.339Z,15.88
2024-04-12T07:15:22.604Z,16.60
2024-04-12T07:18:12.297Z,12.38
2024-04-12T07:21:16.329Z,15.38
2024-04-12T07:24:02.138Z,11.32
2024-04-12T07:26:48.625Z,13.68
2024-04-12T07:29:35.033Z,9.18
2024-04-12T07:32:23.723Z,11.50
2024-04-12T07:35:27.538Z,17.40
2024-04-12T07:38:13.908Z,11.45
2024-04-12T07:40:59.419Z,10.32
2024-04-12T07:43:44.986Z,10.45
2024-04-12T07:46:34.984Z,10.07
2024-04-12T07:49:21.112Z,11.43
2024-04-12T07:52:11.114Z,13.75
2024-04-12T07:54:56.585Z,12.40
2024-04-12T07:57:51.401Z,11.93
2024-04-12T08:00:49.232Z,14.38
2024-04-12T08:03:38.046Z,11.15
2024-04-12T08:06:59.796Z,13.05
2024-04-12T08:09:54.186Z,13.02
2024-04-12T08:12:40.034Z,11.73
2024-04-12T08:15:25.554Z,15.10
2024-04-12T08:18:12.819Z,11.98
2024-04-12T08:21:03.604Z,15.70
2024-04-12T08:23:52.512Z,16.35
2024-04-12T08:26:39.065Z,13.93
2024-04-12T08:29:24.923Z,11.80
2024-04-12T08:32:10.757Z,11.95
2024-04-12T08:34:59.213Z,13.50
2024-04-12T08:37:45.422Z,15.07
2024-04-12T08:40:38.630Z,14.70
2024-04-12T08:43:42.939Z,12.80
2024-04-12T08:46:34.681Z,14.95
2024-04-12T08:49:21.936Z,18.80
2024-04-12T08:52:25.926Z,14.07
2024-04-12T08:55:18.472Z,18.38
2024-04-12T08:58:08.263Z,18.92
2024-04-12T09:00:56.466Z,10.82
2024-04-12T09:03:46.801Z,12.77
2024-04-12T09:06:36.233Z,12.70
2024-04-12T09:12:15.288Z,19.85
2024-04-12T09:15:01.261Z,15.98
2024-04-12T09:17:49.315Z,16.85
2024-04-12T09:20:40.022Z,15.95
2024-04-12T09:23:34.943Z,18.35
2024-04-12T09:26:24.561Z,19.58
2024-04-12T09:29:12.752Z,17.70
2024-04-12T09:32:17.560Z,17.23
2024-04-12T09:35:05.940Z,16.55
2024-04-12T09:38:02.796Z,15.27
2024-04-12T09:40:56.747Z,13.98
2024-04-12T09:43:48.717Z,13.85
2024-04-12T09:47:08.600Z,23.88
2024-04-12T09:50:14.138Z,17.40
2024-04-12T09:53:20.113Z,16.23
2024-04-12T09:56:31.846Z,16.05
2024-04-12T09:59:46.659Z,13.02
2024-04-12T10:02:51.666Z,15.98
2024-04-12T10:05:58.720Z,14.90
2024-04-12T10:09:03.126Z,14.95
2024-04-12T10:12:09.632Z,14.38
2024-04-12T10:15:16.515Z,18.05
2024-04-12T10:18:33.005Z,11.07
2024-04-12T10:21:37.144Z,11.43
2024-04-12T10:24:46.494Z,10.77
2024-04-12T10:27:50.550Z,13.15
2024-04-12T10:31:05.058Z,10.93
2024-04-12T10:34:09.124Z,11.73
2024-04-12T10:37:14.092Z,12.18
2024-04-12T10:39:59.947Z,9.43
2024-04-12T10:42:48.183Z,10.18
2024-04-12T10:45:37.875Z,9.48
2024-04-12T10:48:23.348Z,12.38
2024-04-12T10:51:13.067Z,13.18
2024-04-12T10:54:00.518Z,14.15
2024-04-12T10:56:46.878Z,10.27
2024-04-12T10:59:36.335Z,14.02
2024-04-12T11:02:23.354Z,10.73
2024-04-12T11:05:20.793Z,12.55
2024-04-12T11:08:17.220Z,9.88
2024-04-12T11:11:20.352Z,11.63
2024-04-12T11:14:16.767Z,11.10
2024-04-12T11:17:21.289Z,10.13
2024-04-12T11:20:25.139Z,13.90
2024-04-12T11:23:29.128Z,14.15
2024-04-12T11:26:36.686Z,12.00
2024-04-12T11:29:40.640Z,10.00
2024-04-12T11:32:26.707Z,11.60
2024-04-12T11:35:12.926Z,9.25
2024-04-12T11:37:59.189Z,10.82
2024-04-12T11:40:46.765Z,11.00
2024-04-12T11:43:33.807Z,9.10
2024-04-12T11:46:20.675Z,13.00
2024-04-12T11:49:09.063Z,8.18
2024-04-12T11:52:03.687Z,9.15
2024-04-12T11:54:54.544Z,9.65
2024-04-12T11:57:42.654Z,10.63
2024-04-12T12:00:28.596Z,9.40
2024-04-12T12:03:17.855Z,7.78
2024-04-12T12:08:58.664Z,6.20
2024-04-12T12:11:44.693Z,7.05
2024-04-12T12:14:30.444Z,6.95
2024-04-12T12:17:20.063Z,8.05
2024-04-12T12:20:07.193Z,5.50
2024-04-12T12:22:52.957Z,10.10
2024-04-12T12:25:39.855Z,6.82
2024-04-12T12:28:27.971Z,7.15
2024-04-12T12:31:14.617Z,7.82
2024-04-12T12:34:00.880Z,7.63
2024-04-12T12:36:46.282Z,7.45
2024-04-12T12:39:32.803Z,6.68
2024-04-12T12:42:18.477Z,9.57
2024-04-12T12:45:04.739Z,7.88
2024-04-12T12:47:50.646Z,7.35
2024-04-12T12:50:35.843Z,6.85
2024-04-12T12:53:23.636Z,10.25
2024-04-12T12:56:09.160Z,5.28
2024-04-12T12:58:54.636Z,8.15
2024-04-12T13:01:43.100Z,7.57
2024-04-12T13:04:29.638Z,7.72
2024-04-12T13:07:18.573Z,6.82
2024-04-12T13:10:07.217Z,4.68
2024-04-12T13:12:55.957Z,8.35
2024-04-12T13:15:41.536Z,7.85
2024-04-12T13:18:32.931Z,6.68
2024-04-12T13:21:19.853Z,8.43
2024-04-12T13:24:08.914Z,7.65
2024-04-12T13:26:56.169Z,11.00
2024-04-12T13:29:45.859Z,11.45
2024-04-12T13:32:31.179Z,6.43
2024-04-12T13:35:18.144Z,5.05
2024-04-12T13:38:04.957Z,6.82
2024-04-12T13:40:55.985Z,4.57
2024-04-12T13:43:41.130Z,6.93
2024-04-12T13:46:46.599Z,4.80
2024-04-12T13:49:56.196Z,7.22
2024-04-12T13:52:45.328Z,3.08
2024-04-12T13:55:33.681Z,7.43
2024-04-12T13:58:21.512Z,8.13
2024-04-12T14:01:07.740Z,5.45
2024-04-12T14:04:00.244Z,4.38
2024-04-12T14:06:49.961Z,4.00
2024-04-12T14:09:35.351Z,6.63
2024-04-12T14:12:20.910Z,5.95
2024-04-12T14:15:06.968Z,4.97
2024-04-12T14:17:53.418Z,4.75
2024-04-12T14:20:39.150Z,3.92
2024-04-12T14:23:25.591Z,6.72
2024-04-12T14:26:12.087Z,5.05
2024-04-12T14:29:01.733Z,5.72
2024-04-12T14:34:36.936Z,3.72
2024-04-12T14:37:22.999Z,9.65
2024-04-12T14:40:08.994Z,7.28
2024-04-12T14:42:54.428Z,7.80
2024-04-12T14:45:39.701Z,7.50
2024-04-12T14:48:25.390Z,5.55
2024-04-12T14:51:11.085Z,9.27
2024-04-12T14:53:56.688Z,8.35
2024-04-12T14:56:46.138Z,7.65
2024-04-12T15:02:21.283Z,9.77
2024-04-12T15:05:25.231Z,6.13
2024-04-12T15:08:32.593Z,5.90
2024-04-12T15:11:37.741Z,9.13
2024-04-12T15:14:41.598Z,11.30
2024-04-12T15:17:45.525Z,10.00
2024-04-12T15:20:49.376Z,5.70
2024-04-12T15:23:53.297Z,4.50
2024-04-12T15:26:57.162Z,7.97
2024-04-12T15:30:01.283Z,4.18
2024-04-12T15:33:05.701Z,7.70
2024-04-12T15:36:10.248Z,4.82
2024-04-12T15:39:14.351Z,10.45
2024-04-12T15:42:18.595Z,8.20
2024-04-12T15:45:22.691Z,7.13
2024-04-12T15:48:13.249Z,4.57
2024-04-12T15:50:58.772Z,4.65
2024-04-12T15:53:46.893Z,5.85
2024-04-12T15:56:32.950Z,11.17
2024-04-12T15:59:37.114Z,4.22
2024-04-12T16:02:41.225Z,6.28
2024-04-12T16:05:45.240Z,7.38
2024-04-12T16:08:49.238Z,3.80
2024-04-12T16:11:34.986Z,7.45
2024-04-12T16:14:20.567Z,5.60
2024-04-12T16:17:06.229Z,4.10
2024-04-12T16:19:53.745Z,4.40
2024-04-12T16:22:39.829Z,5.97
2024-04-12T16:25:25.453Z,10.05
2024-04-12T16:28:12.152Z,6.28
2024-04-12T16:30:59.989Z,6.43
2024-04-12T16:33:46.860Z,11.87
2024-04-12T16:36:33.115Z,8.57
2024-04-12T16:39:18.837Z,5.57
2024-04-12T16:42:04.500Z,8.23
2024-04-12T16:44:49.799Z,12.38
